Time;durP1;ratioP1;P1;durP2;ratioP2;P2;SDS_P1;SDS_P2;PMS_P1;PMS_P2;Temp;Humidity;BMP_temperature;BMP_pressure;BME280_temperature;BME280_humidity;BME280_pressure;Samples;Min_cycle;Max_cycle;Signal;HPM_P1;HPM_P2
2021/12/05 00:24:18;;;;;;;;;1.00;1.00;;;;;20.82;39.11;99964.28;5070711;27;51102;-42
2021/12/05 00:26:49;;;;;;;;;1.25;1.00;;;;;20.80;38.80;99963.69;5082674;27;51217;-43
2021/12/05 00:29:23;;;;;;;;;0.75;0.75;;;;;20.80;39.10;99960.09;5073194;27;51111;-43
2021/12/05 00:32:33;;;;;;;;;1.00;0.50;;;;;20.79;39.27;99967.53;5076777;27;51091;-42
2021/12/05 01:00:02;;;;;;;;;0.75;0.75;;;;;20.67;38.97;99937.31;5097429;27;51134;-43
2021/12/05 01:17:31;;;;;;;;;1.50;0.00;;;;;20.62;39.21;99937.19;5086948;27;51796;-45
2021/12/05 01:19:57;;;;;;;;;0.00;0.00;;;;;20.61;38.93;99929.19;5081851;27;51333;-43
2021/12/05 01:22:24;;;;;;;;;1.00;1.00;;;;;20.61;38.82;99937.44;5079932;27;51089;-45
2021/12/05 01:25:17;;;;;;;;;2.00;0.00;;;;;20.58;39.13;99927.75;5079685;27;51286;-44
2021/12/05 01:28:13;;;;;;;;;0.00;0.00;;;;;20.59;39.02;99920.34;5082953;27;52960;-43
2021/12/05 01:33:09;;;;;;;;;1.75;1.00;;;;;20.56;39.47;99920.84;5076045;27;51086;-46
2021/12/05 01:38:33;;;;;;;;;2.50;2.00;;;;;20.55;39.31;99917.25;5098091;27;51175;-44
2021/12/05 01:41:34;;;;;;;;;0.75;0.75;;;;;20.54;39.35;99920.25;5099235;27;50829;-45
2021/12/05 01:54:56;;;;;;;;;1.00;0.75;;;;;20.48;39.05;99913.81;5081239;27;51151;-46
2021/12/05 02:34:50;;;;;;;;;1.00;1.00;;;;;20.35;39.42;99905.81;5089145;27;51221;-45
2021/12/05 02:37:50;;;;;;;;;0.00;0.00;;;;;20.33;39.56;99903.31;5080194;27;51105;-43
2021/12/05 02:43:12;;;;;;;;;1.00;0.00;;;;;20.32;39.26;99907.16;5085974;27;51221;-44
2021/12/05 02:45:42;;;;;;;;;0.00;0.00;;;;;20.32;39.55;99904.41;5072075;27;51423;-45
2021/12/05 02:48:08;;;;;;;;;1.00;1.00;;;;;20.30;39.16;99895.53;5075161;27;51310;-43
2021/12/05 02:50:37;;;;;;;;;0.75;0.75;;;;;20.30;39.15;99890.03;5085195;27;51118;-43
2021/12/05 02:53:15;;;;;;;;;0.00;0.00;;;;;20.29;38.97;99879.28;5078472;27;50945;-44
2021/12/05 02:55:43;;;;;;;;;0.00;0.00;;;;;20.29;38.93;99869.09;5077540;27;52485;-43
2021/12/05 02:58:27;;;;;;;;;0.25;0.25;;;;;20.28;39.52;99861.94;5086806;27;50936;-44
2021/12/05 03:01:20;;;;;;;;;1.00;1.00;;;;;20.28;39.42;99861.09;5075760;27;51063;-42
2021/12/05 03:03:41;;;;;;;;;0.00;0.00;;;;;20.27;39.58;99865.78;5079430;27;51731;-43
2021/12/05 03:06:16;;;;;;;;;0.50;0.50;;;;;20.27;39.36;99870.44;5091107;27;51110;-43
2021/12/05 03:08:42;;;;;;;;;1.75;1.00;;;;;20.25;39.19;99870.69;5095007;27;51081;-42
2021/12/05 03:11:07;;;;;;;;;1.50;1.00;;;;;20.25;39.43;99869.84;5082512;27;50964;-47
2021/12/05 03:13:35;;;;;;;;;1.00;0.00;;;;;20.24;39.29;99868.19;5093054;27;51963;-41
2021/12/05 03:16:01;;;;;;;;;0.50;0.50;;;;;20.24;39.33;99865.44;5079547;27;51053;-43
2021/12/05 03:18:26;;;;;;;;;0.00;0.00;;;;;20.23;39.06;99872.84;5091474;27;51150;-42
2021/12/05 03:20:52;;;;;;;;;2.00;0.25;;;;;20.23;39.24;99867.34;5092866;27;51175;-43
2021/12/05 03:23:17;;;;;;;;;0.50;0.50;;;;;20.21;39.38;99869.47;5097996;27;50942;-44
2021/12/05 03:25:43;;;;;;;;;0.75;0.00;;;;;20.21;39.25;99865.91;5082472;27;50944;-42
2021/12/05 03:28:10;;;;;;;;;1.00;1.00;;;;;20.19;39.01;99866.97;5082789;27;51340;-43
2021/12/05 03:30:35;;;;;;;;;0.00;0.00;;;;;20.21;39.16;99865.91;5077015;27;51045;-42
2021/12/05 03:33:01;;;;;;;;;1.00;0.00;;;;;20.19;39.26;99860.66;5085208;27;51805;-43
2021/12/05 03:35:29;;;;;;;;;0.25;0.25;;;;;20.18;39.09;99864.47;5072849;27;50952;-42
2021/12/05 03:37:57;;;;;;;;;2.00;0.50;;;;;20.18;39.13;99859.81;5078743;27;51180;-42
2021/12/05 03:40:25;;;;;;;;;0.00;0.00;;;;;20.17;39.50;99858.16;5082478;27;50975;-43
2021/12/05 03:42:51;;;;;;;;;1.00;0.00;;;;;20.16;39.04;99850.16;5091523;27;52090;-42
2021/12/05 03:45:21;;;;;;;;;0.00;0.00;;;;;20.15;39.56;99852.06;5106266;27;51271;-42
2021/12/05 03:47:47;;;;;;;;;1.00;0.00;;;;;20.15;39.02;99840.22;5072864;27;50997;-44
2021/12/05 03:50:13;;;;;;;;;1.00;1.00;;;;;20.13;39.01;99839.66;5078043;27;51086;-43
2021/12/05 03:52:40;;;;;;;;;0.00;0.00;;;;;20.12;39.02;99843.47;5080616;27;51079;-44
2021/12/05 03:55:08;;;;;;;;;0.00;0.00;;;;;20.13;39.27;99851.47;5104337;27;51613;-43
2021/12/05 03:57:33;;;;;;;;;0.00;0.00;;;;;20.11;39.20;99845.41;5096074;27;51122;-42
2021/12/05 03:59:59;;;;;;;;;0.75;0.75;;;;;20.12;39.19;99840.72;5080056;27;51130;-43
2021/12/05 04:02:25;;;;;;;;;1.50;0.00;;;;;20.11;39.28;99839.03;5078214;27;51909;-43
2021/12/05 04:04:51;;;;;;;;;0.00;0.00;;;;;20.10;39.34;99838.19;5093663;27;51215;-43
2021/12/05 04:07:17;;;;;;;;;0.50;0.00;;;;;20.10;39.49;99837.38;5081970;27;51100;-43
2021/12/05 04:09:44;;;;;;;;;0.00;0.00;;;;;20.09;39.11;99830.19;5080807;27;50980;-47
2021/12/05 04:12:10;;;;;;;;;0.50;0.25;;;;;20.07;39.30;99827.69;5077528;27;51240;-44
2021/12/05 04:14:42;;;;;;;;;0.00;0.00;;;;;20.06;39.22;99831.53;5077644;27;51121;-47
2021/12/05 04:17:10;;;;;;;;;2.00;1.00;;;;;20.06;39.39;99837.03;5076882;27;51019;-44
2021/12/05 04:19:36;;;;;;;;;0.00;0.00;;;;;20.05;39.13;99824.38;5076339;27;51225;-45
2021/12/05 04:22:05;;;;;;;;;0.00;0.00;;;;;20.05;39.24;99838.09;5085563;27;51461;-47
2021/12/05 04:24:31;;;;;;;;;0.75;0.00;;;;;20.04;39.13;99836.44;5100844;27;51150;-44
2021/12/05 04:26:56;;;;;;;;;0.00;0.00;;;;;20.03;39.22;99834.78;5085530;27;51133;-43
2021/12/05 04:29:22;;;;;;;;;0.00;0.00;;;;;20.03;39.36;99837.53;5082805;27;50897;-44
2021/12/05 04:31:48;;;;;;;;;0.00;0.00;;;;;20.02;39.15;99827.59;5077758;27;51124;-42
2021/12/05 04:34:13;;;;;;;;;0.00;0.00;;;;;20.02;39.23;99829.53;5108187;27;51237;-45
2021/12/05 04:36:41;;;;;;;;;0.00;0.00;;;;;20.02;39.09;99841.34;5083153;27;51110;-43
2021/12/05 04:39:06;;;;;;;;;0.00;0.00;;;;;20.01;39.41;99828.69;5093781;27;50915;-42
2021/12/05 04:41:32;;;;;;;;;1.00;0.00;;;;;20.00;39.41;99827.00;5084481;27;51918;-43
2021/12/05 04:43:59;;;;;;;;;3.75;0.75;;;;;19.99;39.16;99817.06;5083233;27;51305;-43
2021/12/05 04:46:26;;;;;;;;;0.00;0.00;;;;;19.99;38.89;99822.56;5088161;27;52081;-42
2021/12/05 04:48:54;;;;;;;;;0.00;0.00;;;;;19.98;39.10;99817.31;5096511;27;51288;-42
2021/12/05 04:51:29;;;;;;;;;0.00;0.00;;;;;19.98;39.50;99826.41;5092454;27;51815;-42
2021/12/05 04:53:55;;;;;;;;;0.00;0.00;;;;;19.98;39.62;99829.16;5090657;27;51873;-44
2021/12/05 04:56:21;;;;;;;;;0.50;0.00;;;;;19.97;39.26;99823.91;5077754;27;51072;-44
2021/12/05 04:58:47;;;;;;;;;0.00;0.00;;;;;19.95;39.14;99828.81;5076854;27;50922;-43
2021/12/05 05:01:12;;;;;;;;;0.00;0.00;;;;;19.95;39.11;99823.31;5081017;27;51814;-42
2021/12/05 05:03:38;;;;;;;;;0.00;0.00;;;;;19.94;39.13;99821.66;5079201;27;51225;-43
2021/12/05 05:06:16;;;;;;;;;0.00;0.00;;;;;19.93;39.42;99823.56;5094923;27;51332;-43
2021/12/05 05:08:44;;;;;;;;;0.00;0.00;;;;;19.92;39.48;99813.66;5089240;27;51056;-44
2021/12/05 05:11:13;;;;;;;;;0.25;0.25;;;;;19.92;39.54;99813.66;5089805;27;52637;-46
2021/12/05 05:13:39;;;;;;;;;0.00;0.00;;;;;19.91;39.45;99812.00;5069835;27;55951;-42
2021/12/05 05:16:06;;;;;;;;;0.00;0.00;;;;;19.92;39.05;99810.06;5085074;27;51016;-43
2021/12/05 05:18:45;;;;;;;;;0.00;0.00;;;;;19.91;39.45;99812.00;5081866;27;51307;-44
2021/12/05 05:21:29;;;;;;;;;0.00;0.00;;;;;19.90;39.06;99810.28;5075691;27;52631;-44
2021/12/05 05:40:16;;;;;;;;;0.00;0.00;;;;;19.83;39.53;99815.09;5080044;27;50978;-43
2021/12/05 05:50:11;;;;;;;;;0.00;0.00;;;;;19.81;39.08;99825.50;5079701;27;51125;-43
2021/12/05 05:52:36;;;;;;;;;0.00;0.00;;;;;19.81;39.13;99833.75;5085032;27;51751;-46
2021/12/05 05:55:02;;;;;;;;;0.00;0.00;;;;;19.81;39.14;99820.84;5086931;27;50976;-43
2021/12/05 05:57:57;;;;;;;;;0.00;0.00;;;;;19.80;39.00;99821.06;5091768;27;51120;-44
2021/12/05 06:00:39;;;;;;;;;1.00;0.00;;;;;19.79;39.82;99811.16;5078455;27;51140;-42
2021/12/05 06:05:45;;;;;;;;;0.00;0.00;;;;;19.78;39.30;99799.31;5078927;27;51067;-43
2021/12/05 06:08:11;;;;;;;;;0.00;0.00;;;;;19.77;39.07;99808.66;5079511;27;51012;-44
2021/12/05 06:10:37;;;;;;;;;0.00;0.00;;;;;19.77;39.16;99816.91;5079204;27;51000;-42
2021/12/05 06:13:03;;;;;;;;;0.00;0.00;;;;;19.77;39.20;99813.31;5080020;27;51182;-44
2021/12/05 06:15:29;;;;;;;;;0.00;0.00;;;;;19.76;39.40;99796.00;5077776;27;51023;-43
2021/12/05 06:17:55;;;;;;;;;1.00;0.00;;;;;19.75;39.17;99799.81;5094182;27;51585;-46
2021/12/05 06:20:26;;;;;;;;;0.00;0.00;;;;;19.75;39.41;99799.00;5097911;27;51043;-43
2021/12/05 06:22:52;;;;;;;;;1.00;0.00;;;;;19.75;39.18;99810.81;5096866;27;51870;-44
2021/12/05 06:25:24;;;;;;;;;0.00;0.00;;;;;19.75;39.26;99807.22;5094864;27;51461;-43
2021/12/05 06:27:52;;;;;;;;;1.00;0.00;;;;;19.73;38.82;99810.22;5087189;27;50995;-44
2021/12/05 06:46:30;;;;;;;;;0.00;0.00;;;;;19.43;36.33;99815.00;5096332;27;51211;-45
2021/12/05 06:48:56;;;;;;;;;0.25;0.00;;;;;19.38;36.37;99821.22;5078413;27;51097;-42
2021/12/05 06:51:25;;;;;;;;;2.00;0.75;;;;;19.33;36.23;99815.63;5075692;27;51110;-41
2021/12/05 06:53:52;;;;;;;;;0.00;0.00;;;;;19.29;36.36;99817.19;5078127;27;51905;-44
2021/12/05 06:56:18;;;;;;;;;0.00;0.00;;;;;19.23;36.10;99818.94;5078865;27;51287;-44
2021/12/05 06:58:43;;;;;;;;;0.25;0.25;;;;;19.20;35.88;99829.59;5079437;27;50969;-45
2021/12/05 07:01:11;;;;;;;;;0.50;0.50;;;;;19.15;35.79;99830.28;5087043;27;50905;-45
2021/12/05 07:03:40;;;;;;;;;0.00;0.00;;;;;19.10;35.83;99838.41;5078073;27;54012;-43
2021/12/05 07:06:10;;;;;;;;;0.00;0.00;;;;;19.08;35.84;99834.25;5095157;27;51347;-42
2021/12/05 07:08:39;;;;;;;;;1.00;0.00;;;;;19.01;35.85;99846.16;5078387;27;51070;-43
2021/12/05 07:19:14;;;;;;;;;0.75;0.00;;;;;18.86;35.72;99833.94;5079145;27;50970;-44
2021/12/05 07:40:24;;;;;;;;;1.00;1.00;;;;;19.00;36.42;99819.78;5076679;27;52191;-42
2021/12/05 07:42:55;;;;;;;;;1.50;0.75;;;;;19.09;36.64;99823.03;5092049;27;51065;-48
2021/12/05 07:45:27;;;;;;;;;0.00;0.00;;;;;19.15;36.60;99835.78;5086343;27;50934;-46
2021/12/05 07:47:55;;;;;;;;;0.00;0.00;;;;;19.25;36.39;99818.72;5070932;27;51636;-44
2021/12/05 07:50:29;;;;;;;;;0.00;0.00;;;;;19.33;36.30;99815.63;5087360;27;51149;-40
2021/12/05 07:53:03;;;;;;;;;1.00;0.00;;;;;19.43;36.58;99824.09;5081822;27;51105;-44
2021/12/05 07:55:36;;;;;;;;;1.00;0.00;;;;;19.52;36.71;99822.66;5076438;27;51806;-45
2021/12/05 08:16:34;;;;;;;;;0.50;0.50;;;;;20.18;38.72;99839.72;5085351;27;52344;-42
2021/12/05 08:19:00;;;;;;;;;1.25;0.00;;;;;20.21;38.75;99841.16;5083546;27;51479;-43
2021/12/05 08:21:25;;;;;;;;;2.50;1.00;;;;;20.27;39.27;99842.94;5075651;27;51312;-43
2021/12/05 08:23:51;;;;;;;;;0.75;0.75;;;;;20.32;39.46;99840.28;5075102;27;51254;-45
2021/12/05 08:26:22;;;;;;;;;0.00;0.00;;;;;20.37;39.36;99840.38;5079188;27;51541;-42
2021/12/05 09:31:17;;;;;;;;;2.00;1.00;;;;;21.67;39.42;99880.66;5077009;27;51653;-40
2021/12/05 10:16:50;;;;;;;;;0.25;0.25;;;;;22.39;38.64;99897.09;5076154;27;51449;-42
2021/12/05 10:38:16;;;;;;;;;1.00;1.00;;;;;22.62;38.32;99889.63;5087547;27;51522;-42
2021/12/05 10:44:11;;;;;;;;;2.50;2.50;;;;;22.67;38.56;99873.13;5065172;27;51181;-44
2021/12/05 10:46:39;;;;;;;;;3.50;1.00;;;;;22.68;38.55;99891.34;5068629;27;50967;-42
2021/12/05 10:49:15;;;;;;;;;2.25;1.00;;;;;22.68;38.66;99872.84;5078489;27;51286;-45
2021/12/05 10:51:48;;;;;;;;;2.50;1.25;;;;;22.70;39.28;99875.34;5081787;27;52117;-42
2021/12/05 10:54:18;;;;;;;;;2.50;1.00;;;;;22.70;38.47;99873.41;5078378;27;51269;-43
2021/12/05 10:56:54;;;;;;;;;2.75;1.00;;;;;22.73;39.03;99880.38;5073546;27;50905;-45
2021/12/05 10:59:36;;;;;;;;;2.00;2.00;;;;;22.72;39.18;99874.00;5065852;27;51038;-44
2021/12/05 11:02:08;;;;;;;;;2.50;1.50;;;;;22.72;39.18;99876.78;5076827;27;51092;-43
2021/12/05 11:04:42;;;;;;;;;0.75;0.75;;;;;22.75;39.19;99867.13;5075604;27;51205;-47
2021/12/05 11:07:11;;;;;;;;;4.00;1.25;;;;;22.76;38.36;99877.09;5071586;27;52003;-43
2021/12/05 11:09:52;;;;;;;;;3.00;2.00;;;;;22.77;38.67;99873.22;5077674;27;50905;-46
2021/12/05 11:12:25;;;;;;;;;2.50;1.00;;;;;22.75;38.00;99864.38;5076742;27;51350;-47
2021/12/05 11:14:57;;;;;;;;;2.75;1.75;;;;;22.73;38.64;99859.13;5080802;27;51167;-45
2021/12/05 11:17:28;;;;;;;;;2.00;2.00;;;;;22.74;38.26;99863.53;5071543;27;52551;-45
2021/12/05 11:20:03;;;;;;;;;2.50;1.00;;;;;22.75;38.44;99864.38;5076897;27;51241;-46
2021/12/05 11:22:45;;;;;;;;;2.50;1.00;;;;;22.77;38.82;99867.69;5077680;27;51114;-43
2021/12/05 11:25:16;;;;;;;;;1.50;1.50;;;;;22.78;38.71;99863.84;5074131;27;50950;-44
2021/12/05 11:27:41;;;;;;;;;4.25;3.00;;;;;22.79;38.89;99857.22;5077331;27;52148;-44
2021/12/05 11:30:19;;;;;;;;;2.00;2.00;;;;;22.81;39.07;99860.53;5068748;27;51059;-43
2021/12/05 11:32:56;;;;;;;;;4.00;2.50;;;;;22.81;38.75;99860.53;5099866;27;51351;-45
2021/12/05 11:35:26;;;;;;;;;4.00;4.00;;;;;22.80;39.46;99867.16;5076817;27;51150;-44
2021/12/05 11:37:54;;;;;;;;;4.00;4.00;;;;;22.75;38.82;99864.38;5070083;27;52001;-44
2021/12/05 11:40:21;;;;;;;;;5.50;3.25;;;;;22.69;39.42;99862.63;5075029;27;52259;-45
2021/12/05 11:43:04;;;;;;;;;3.75;2.75;;;;;22.60;39.38;99858.69;5071334;27;51059;-44
2021/12/05 11:45:40;;;;;;;;;5.00;5.00;;;;;22.55;39.70;99872.44;5073989;27;52658;-43
2021/12/05 11:48:18;;;;;;;;;6.25;4.00;;;;;22.45;40.09;99871.22;5094668;27;52744;-47
2021/12/05 11:50:43;;;;;;;;;6.00;6.00;;;;;22.39;40.39;99868.66;5064061;27;51393;-44
2021/12/05 11:53:09;;;;;;;;;6.00;5.50;;;;;22.34;40.24;99871.38;5088483;27;51093;-49
2021/12/05 11:55:34;;;;;;;;;4.00;4.00;;;;;22.29;40.85;99885.94;5075416;27;51048;-44
2021/12/05 11:58:00;;;;;;;;;5.00;4.25;;;;;22.26;41.07;99896.66;5072529;27;52008;-45
2021/12/05 12:00:27;;;;;;;;;4.75;3.00;;;;;22.27;40.94;99896.38;5074866;27;51382;-44
2021/12/05 12:02:53;;;;;;;;;5.50;3.00;;;;;22.31;40.81;99905.00;5069691;27;50946;-44
2021/12/05 12:05:20;;;;;;;;;5.50;3.50;;;;;22.36;40.88;99902.28;5075188;27;51388;-45
2021/12/05 12:07:52;;;;;;;;;6.50;5.00;;;;;22.38;41.61;99902.88;5069806;27;51322;-44
2021/12/05 12:10:45;;;;;;;;;4.25;3.50;;;;;22.37;42.48;99899.28;5078846;27;52119;-46
2021/12/05 12:13:18;;;;;;;;;3.75;2.75;;;;;22.38;41.96;99898.19;5080654;27;51372;-45
2021/12/05 12:15:45;;;;;;;;;3.25;2.50;;;;;22.38;42.45;99903.69;5066180;27;51372;-46
2021/12/05 12:18:24;;;;;;;;;4.75;2.75;;;;;22.37;42.35;99901.19;5074803;27;51856;-45
2021/12/05 12:20:49;;;;;;;;;3.00;3.00;;;;;22.35;41.98;99898.69;5073706;27;51118;-43
2021/12/05 12:23:17;;;;;;;;;5.00;4.00;;;;;22.35;42.35;99901.47;5074675;27;52274;-45
2021/12/05 12:25:45;;;;;;;;;3.00;2.00;;;;;22.36;42.15;99913.34;5069808;27;51050;-46
2021/12/05 12:28:11;;;;;;;;;2.25;2.25;;;;;22.38;41.93;99906.47;5068173;27;51242;-46
2021/12/05 12:30:40;;;;;;;;;3.75;2.75;;;;;22.43;41.31;99912.06;5069734;27;51131;-44
2021/12/05 12:33:32;;;;;;;;;3.50;3.50;;;;;22.50;40.99;99916.53;5070106;27;51093;-45
2021/12/05 12:35:57;;;;;;;;;3.00;2.00;;;;;22.55;41.34;99916.59;5081484;27;51293;-45
2021/12/05 12:38:36;;;;;;;;;4.00;4.00;;;;;22.55;41.59;99913.84;5075867;27;51012;-44
2021/12/05 12:41:16;;;;;;;;;2.50;2.50;;;;;22.53;41.40;99910.50;5072579;27;50936;-44
2021/12/05 12:43:52;;;;;;;;;2.00;2.00;;;;;22.47;40.86;99913.19;5067807;27;50943;-45
2021/12/05 12:46:25;;;;;;;;;3.50;3.00;;;;;22.42;41.01;99917.84;5073563;27;52455;-43
2021/12/05 12:49:16;;;;;;;;;4.25;3.00;;;;;22.35;41.42;99923.53;5073984;27;52191;-44
2021/12/05 12:51:50;;;;;;;;;4.75;3.00;;;;;22.28;41.48;99919.28;5074345;27;51686;-44
2021/12/05 12:54:27;;;;;;;;;4.00;2.75;;;;;22.23;41.02;99924.75;5076164;27;52220;-47
2021/12/05 12:57:04;;;;;;;;;5.00;4.00;;;;;22.22;40.72;99923.94;5074775;27;51214;-46
2021/12/05 12:59:34;;;;;;;;;5.00;3.00;;;;;22.25;40.95;99923.41;5078323;27;51799;-44
2021/12/05 13:10:24;;;;;;;;;4.75;1.25;;;;;22.42;40.90;99935.22;5078040;27;50976;-45
2021/12/05 13:12:55;;;;;;;;;1.75;1.75;;;;;22.48;40.73;99941.63;5078319;27;51032;-44
2021/12/05 13:15:35;;;;;;;;;3.00;1.50;;;;;22.52;40.91;99936.44;5077866;27;51149;-45
2021/12/05 13:18:13;;;;;;;;;3.00;3.00;;;;;22.56;41.04;99943.09;5078548;27;50878;-44
2021/12/05 13:20:41;;;;;;;;;2.25;2.00;;;;;22.59;41.00;99948.94;5077090;27;51584;-44
2021/12/05 13:23:14;;;;;;;;;1.50;1.00;;;;;22.62;40.58;99953.13;5076769;27;51127;-43
2021/12/05 13:26:08;;;;;;;;;6.50;3.25;;;;;22.66;41.04;99957.03;5077863;27;50991;-43
2021/12/05 13:28:52;;;;;;;;;3.50;3.00;;;;;22.65;41.13;99950.66;5069725;28;50982;-42
2021/12/05 13:31:26;;;;;;;;;4.00;3.00;;;;;22.62;41.06;99959.47;5075435;27;51969;-46
2021/12/05 13:34:17;;;;;;;;;1.75;1.00;;;;;22.58;40.76;99957.47;5077726;27;50924;-48
2021/12/05 13:36:46;;;;;;;;;2.00;2.00;;;;;22.53;41.21;99955.50;5076568;27;51098;-43
2021/12/05 13:39:37;;;;;;;;;3.00;1.75;;;;;22.47;41.61;99960.09;5076864;27;51258;-44
2021/12/05 13:42:22;;;;;;;;;5.25;1.50;;;;;22.41;41.69;99963.06;5076802;27;51227;-43
2021/12/05 13:44:59;;;;;;;;;2.00;2.00;;;;;22.37;40.86;99962.72;5103651;27;51584;-45
2021/12/05 13:47:37;;;;;;;;;3.50;3.25;;;;;22.31;41.34;99969.28;5068988;27;52392;-44
2021/12/05 13:50:25;;;;;;;;;2.75;2.75;;;;;22.27;40.92;99968.13;5070580;27;51054;-45
2021/12/05 13:52:58;;;;;;;;;2.00;1.00;;;;;22.24;41.41;99968.63;5073688;27;51209;-43
2021/12/05 13:55:33;;;;;;;;;4.25;3.75;;;;;22.24;41.55;99968.63;5072465;27;51328;-44
2021/12/05 13:58:17;;;;;;;;;3.00;3.00;;;;;22.29;41.55;99976.97;5075854;27;51563;-46
2021/12/05 14:01:12;;;;;;;;;3.75;3.00;;;;;22.35;41.59;99981.47;5072341;27;51526;-44
2021/12/05 14:03:51;;;;;;;;;2.50;2.00;;;;;22.42;41.30;99981.31;5073872;27;52699;-43
2021/12/05 14:06:27;;;;;;;;;2.50;2.50;;;;;22.46;41.29;99980.53;5069980;27;51278;-43
2021/12/05 14:08:56;;;;;;;;;2.00;2.00;;;;;22.54;41.42;99984.78;5074350;27;51057;-45
2021/12/05 14:11:25;;;;;;;;;3.00;3.00;;;;;22.59;41.03;99982.06;5070741;27;51374;-44
2021/12/05 14:13:51;;;;;;;;;2.00;2.00;;;;;22.64;40.74;99995.09;5075110;27;51322;-44
2021/12/05 14:16:18;;;;;;;;;2.25;2.25;;;;;22.70;41.00;99988.53;5069731;27;51393;-43
2021/12/05 14:18:43;;;;;;;;;2.00;2.00;;;;;22.74;41.14;99992.47;5085398;27;51265;-43
2021/12/05 14:21:13;;;;;;;;;2.00;1.00;;;;;22.75;40.84;99991.38;5071766;27;51433;-45
2021/12/05 14:23:40;;;;;;;;;2.00;2.00;;;;;22.73;40.74;99997.16;5087424;27;52870;-44
2021/12/05 14:26:17;;;;;;;;;5.00;5.00;;;;;22.69;41.50;99995.97;5075621;27;51077;-45
2021/12/05 14:28:43;;;;;;;;;3.25;2.75;;;;;22.65;41.40;99996.78;5074818;27;50921;-46
2021/12/05 14:31:10;;;;;;;;;3.00;3.00;;;;;22.61;41.39;100003.88;5072993;27;51047;-45
2021/12/05 14:33:49;;;;;;;;;4.00;2.00;;;;;22.57;41.42;100002.72;5067615;27;51101;-45
2021/12/05 14:36:28;;;;;;;;;2.25;2.25;;;;;22.54;41.52;100014.28;5074179;27;51011;-47
2021/12/05 14:39:14;;;;;;;;;2.25;2.25;;;;;22.50;42.11;100013.13;5071620;27;50829;-45
2021/12/05 14:41:41;;;;;;;;;4.00;3.50;;;;;22.46;42.03;100013.63;5075259;27;51124;-45
2021/12/05 14:44:07;;;;;;;;;3.00;3.00;;;;;22.41;42.36;100016.34;5071283;27;51843;-45
2021/12/05 14:46:33;;;;;;;;;1.00;1.00;;;;;22.39;42.02;100015.75;5075127;28;51218;-47
2021/12/05 14:49:04;;;;;;;;;3.50;3.00;;;;;22.37;41.68;100030.88;5071932;27;51212;-45
2021/12/05 14:51:39;;;;;;;;;4.75;2.25;;;;;22.37;42.11;100022.59;5069278;27;51290;-48
2021/12/05 14:54:06;;;;;;;;;4.00;3.00;;;;;22.40;41.90;100027.59;5069950;27;51512;-51
2021/12/05 14:56:34;;;;;;;;;4.25;3.25;;;;;22.45;41.95;100038.72;5067456;27;51522;-47
2021/12/05 14:59:10;;;;;;;;;5.25;4.25;;;;;22.49;42.00;100050.91;5070106;27;51050;-51
2021/12/05 15:01:39;;;;;;;;;4.25;4.25;;;;;22.57;41.73;100052.41;5068843;27;51210;-45
2021/12/05 15:04:07;;;;;;;;;4.00;4.00;;;;;22.61;41.33;100057.16;5070146;27;52454;-44
2021/12/05 15:06:39;;;;;;;;;4.75;3.50;;;;;22.66;41.36;100053.66;5069933;27;51372;-43
2021/12/05 15:09:15;;;;;;;;;5.00;5.00;;;;;22.71;41.73;100061.97;5086121;27;51192;-44
2021/12/05 15:11:48;;;;;;;;;7.00;5.00;;;;;22.71;41.62;100059.22;5077159;27;51303;-43
2021/12/05 15:14:14;;;;;;;;;4.00;4.00;;;;;22.68;41.67;100056.97;5071005;27;52488;-47
2021/12/05 15:16:52;;;;;;;;;7.75;4.75;;;;;22.65;41.75;100072.13;5068672;27;51256;-46
2021/12/05 15:19:18;;;;;;;;;6.25;5.25;;;;;22.59;41.90;100075.91;5071938;27;51065;-44
2021/12/05 15:21:43;;;;;;;;;3.75;3.50;;;;;22.58;41.18;100082.50;5073874;27;51934;-43
2021/12/05 15:24:14;;;;;;;;;4.00;4.00;;;;;22.55;41.70;100087.72;5069244;27;51836;-46
2021/12/05 15:26:40;;;;;;;;;3.75;3.75;;;;;22.50;41.81;100084.88;5073252;27;51229;-45
2021/12/05 15:29:05;;;;;;;;;3.50;3.50;;;;;22.47;41.70;100100.84;5069137;27;51315;-45
2021/12/05 15:31:39;;;;;;;;;4.25;4.25;;;;;22.43;41.87;100104.38;5078431;27;51075;-43
2021/12/05 15:34:32;;;;;;;;;7.00;4.00;;;;;22.40;41.45;100099.34;5067948;27;52306;-45
2021/12/05 15:36:59;;;;;;;;;5.00;5.00;;;;;22.42;41.79;100102.72;5082263;27;51350;-44
2021/12/05 15:39:29;;;;;;;;;2.50;2.00;;;;;22.47;41.66;100103.63;5075061;27;51230;-46
2021/12/05 15:41:57;;;;;;;;;3.00;2.50;;;;;22.53;41.81;100112.81;5084109;27;51214;-45
2021/12/05 15:44:43;;;;;;;;;5.00;4.00;;;;;22.60;41.99;100127.25;5067457;27;51984;-44
2021/12/05 15:47:20;;;;;;;;;4.25;3.75;;;;;22.66;41.54;100123.50;5070993;27;51165;-46
2021/12/05 15:49:45;;;;;;;;;8.00;5.50;;;;;22.71;41.60;100133.75;5073302;27;51217;-47
2021/12/05 15:52:11;;;;;;;;;5.00;4.75;;;;;22.72;41.35;100140.97;5073310;27;51034;-44
2021/12/05 15:54:38;;;;;;;;;3.50;3.00;;;;;22.70;41.40;100137.63;5071111;27;52161;-44
2021/12/05 15:57:12;;;;;;;;;7.00;4.00;;;;;22.67;42.00;100150.00;5071346;27;51408;-46
2021/12/05 15:59:40;;;;;;;;;4.00;4.00;;;;;22.65;41.21;100156.88;5070161;27;51111;-46
2021/12/05 16:02:10;;;;;;;;;4.25;4.25;;;;;22.60;41.88;100154.03;5067781;27;50943;-43
2021/12/05 16:04:36;;;;;;;;;6.00;4.25;;;;;22.56;41.26;100166.69;5066012;27;52825;-44
2021/12/05 16:07:02;;;;;;;;;6.00;3.75;;;;;22.53;41.85;100167.19;5072069;27;51445;-43
2021/12/05 16:09:27;;;;;;;;;5.00;3.00;;;;;22.48;41.63;100179.78;5067352;27;51770;-46
2021/12/05 16:12:15;;;;;;;;;4.75;4.75;;;;;22.46;41.67;100176.47;5071341;27;51140;-45
2021/12/05 16:14:44;;;;;;;;;7.00;4.50;;;;;22.44;41.20;100186.91;5071077;27;51848;-44
2021/12/05 16:17:22;;;;;;;;;6.75;6.00;;;;;22.46;41.44;100195.78;5068246;27;51453;-45
2021/12/05 16:20:17;;;;;;;;;5.00;5.00;;;;;22.50;41.03;100204.38;5071516;27;51426;-44
2021/12/05 16:23:15;;;;;;;;;10.75;5.00;;;;;22.51;40.46;100200.56;5069229;27;51142;-45
2021/12/05 16:25:43;;;;;;;;;3.75;3.00;;;;;22.51;40.39;100200.56;5065548;27;52006;-44
2021/12/05 16:28:14;;;;;;;;;4.00;4.00;;;;;22.56;40.31;100205.31;5071494;27;51204;-44
2021/12/05 16:30:46;;;;;;;;;5.25;4.00;;;;;22.59;39.91;100213.09;5069075;27;51366;-47
2021/12/05 16:33:15;;;;;;;;;4.00;3.50;;;;;22.63;40.24;100217.03;5067777;27;51153;-46
2021/12/05 16:35:44;;;;;;;;;6.00;5.00;;;;;22.63;40.47;100222.56;5068048;27;52133;-40
2021/12/05 16:38:28;;;;;;;;;4.25;4.25;;;;;22.64;40.01;100218.72;5069784;27;51189;-40
2021/12/05 16:40:53;;;;;;;;;4.25;4.00;;;;;22.59;40.19;100221.38;5074079;27;50929;-40
2021/12/05 16:43:19;;;;;;;;;6.50;5.50;;;;;22.56;40.42;100232.91;5073271;27;50964;-40
2021/12/05 16:45:45;;;;;;;;;5.00;4.00;;;;;22.50;40.46;100225.63;5072315;27;51169;-41
2021/12/05 16:48:15;;;;;;;;;4.25;4.25;;;;;22.45;40.45;100229.16;5069912;27;51218;-41
2021/12/05 16:50:41;;;;;;;;;7.00;4.25;;;;;22.41;40.76;100241.78;5074089;27;51115;-42
2021/12/05 16:53:07;;;;;;;;;4.00;4.00;;;;;22.36;40.65;100242.53;5069029;27;51250;-41
2021/12/05 16:55:33;;;;;;;;;5.50;5.50;;;;;22.34;40.93;100241.94;5084497;27;51738;-40
2021/12/05 16:58:16;;;;;;;;;7.25;5.25;;;;;22.31;40.63;100247.97;5068597;27;51217;-41
2021/12/05 17:00:49;;;;;;;;;4.25;3.75;;;;;22.32;40.67;100252.41;5067884;27;51203;-42
2021/12/05 17:03:23;;;;;;;;;5.25;4.25;;;;;22.36;40.91;100253.56;5085958;27;52496;-42
2021/12/05 17:05:51;;;;;;;;;5.25;5.00;;;;;22.41;40.88;100258.34;5069391;27;51590;-43
2021/12/05 17:08:20;;;;;;;;;9.75;5.25;;;;;22.45;39.91;100257.59;5068330;27;51242;-41
2021/12/05 17:11:01;;;;;;;;;5.00;5.00;;;;;22.47;39.94;100260.94;5104383;27;51139;-41
2021/12/05 17:13:37;;;;;;;;;5.00;4.00;;;;;22.50;40.23;100267.03;5070184;27;51140;-42
2021/12/05 17:16:05;;;;;;;;;4.00;4.00;;;;;22.54;39.86;100271.81;5066625;27;51856;-42
2021/12/05 17:18:47;;;;;;;;;6.00;4.25;;;;;22.57;40.22;100268.56;5069672;27;51377;-43
2021/12/05 17:21:17;;;;;;;;;5.00;5.00;;;;;22.58;41.25;100280.44;5071089;27;51280;-42
2021/12/05 17:23:53;;;;;;;;;4.00;4.00;;;;;22.56;40.93;100285.38;5068685;27;51035;-44
2021/12/05 17:26:21;;;;;;;;;8.75;5.00;;;;;22.55;41.04;100278.16;5073526;27;52031;-47
2021/12/05 17:28:46;;;;;;;;;5.00;4.75;;;;;22.51;41.22;100275.09;5077304;27;51347;-46
2021/12/05 17:31:14;;;;;;;;;5.00;4.25;;;;;22.49;41.55;100291.03;5072814;27;51195;-43
2021/12/05 17:33:48;;;;;;;;;9.25;5.75;;;;;22.46;42.15;100286.84;5077237;27;50946;-46
2021/12/05 17:36:33;;;;;;;;;4.50;3.75;;;;;22.44;42.32;100293.72;5089662;27;52956;-44